createdAt,value
2019-03-20T00:01:27.869Z,98862.11
2019-03-20T00:03:56.140Z,98863.70
2019-03-20T00:06:24.402Z,98862.41
2019-03-20T00:08:52.630Z,98865.06
2019-03-20T00:11:20.930Z,98862.41
2019-03-20T00:13:49.156Z,98861.57
2019-03-20T00:16:17.423Z,98868.03
2019-03-20T00:18:45.745Z,98866.96
2019-03-20T00:21:13.975Z,98879.05
2019-03-20T00:23:42.223Z,98878.77
2019-03-20T00:26:10.448Z,98875.02
2019-03-20T00:28:38.644Z,98873.68
2019-03-20T00:31:06.929Z,98872.34
2019-03-20T00:33:35.131Z,98871.52
2019-03-20T00:36:03.394Z,98872.05
2019-03-20T00:38:31.632Z,98873.41
2019-03-20T00:40:59.846Z,98871.27
2019-03-20T00:43:28.057Z,98878.77
2019-03-20T00:45:56.341Z,98872.89
2019-03-20T00:48:24.529Z,98875.58
2019-03-20T00:50:52.787Z,98874.25
2019-03-20T00:53:21.025Z,98874.79
2019-03-20T00:55:49.173Z,98871.27
2019-03-20T00:58:17.388Z,98866.17
2019-03-20T01:00:45.599Z,98867.52
2019-03-20T01:03:13.833Z,98875.04
2019-03-20T01:05:42.055Z,98863.77
2019-03-20T01:08:10.288Z,98863.23
2019-03-20T01:10:38.480Z,98863.77
2019-03-20T01:13:06.740Z,98861.64
2019-03-20T01:15:34.993Z,98864.34
2019-03-20T01:18:03.227Z,98861.38
2019-03-20T01:20:31.464Z,98861.66
2019-03-20T01:22:59.695Z,98862.44
2019-03-20T01:25:27.977Z,98865.97
2019-03-20T01:27:56.253Z,98869.44
2019-03-20T01:30:34.389Z,98865.43
2019-03-20T01:33:03.206Z,98863.81
2019-03-20T01:35:31.406Z,98866.25
2019-03-20T01:37:59.610Z,98865.43
2019-03-20T01:40:27.862Z,98867.33
2019-03-20T01:42:56.024Z,98863.85
2019-03-20T01:45:24.334Z,98856.89
2019-03-20T01:47:52.627Z,98855.82
2019-03-20T01:50:20.843Z,98853.92
2019-03-20T01:52:49.095Z,98856.61
2019-03-20T01:55:17.317Z,98862.77
2019-03-20T01:57:45.668Z,98859.27
2019-03-20T02:00:13.892Z,98856.61
2019-03-20T02:02:42.198Z,98850.69
2019-03-20T02:05:10.449Z,98863.05
2019-03-20T02:07:38.591Z,98862.51
2019-03-20T02:10:07.216Z,98864.38
2019-03-20T02:12:35.394Z,98859.84
2019-03-20T02:15:03.660Z,98861.19
2019-03-20T02:17:31.830Z,98862.53
2019-03-20T02:20:00.045Z,98864.16
2019-03-20T02:22:28.280Z,98859.34
2019-03-20T02:24:56.444Z,98860.12
2019-03-20T02:27:24.758Z,98853.97
2019-03-20T02:29:52.967Z,98858.52
2019-03-20T02:32:21.179Z,98854.24
2019-03-20T02:34:49.358Z,98854.24
2019-03-20T02:37:17.606Z,98853.17
2019-03-20T02:39:45.861Z,98863.64
2019-03-20T02:42:14.088Z,98866.04
2019-03-20T02:44:42.267Z,98868.19
2019-03-20T02:47:10.572Z,98861.76
2019-03-20T02:49:38.828Z,98809.88
2019-03-20T02:52:06.998Z,98867.66
2019-03-20T02:54:35.193Z,98856.92
2019-03-20T02:57:03.385Z,98855.85
2019-03-20T02:59:31.619Z,98858.28
2019-03-20T03:01:59.805Z,98860.44
2019-03-20T03:04:28.059Z,98862.57
2019-03-20T03:06:56.286Z,98866.08
2019-03-20T03:09:24.500Z,98866.36
2019-03-20T03:11:52.679Z,98861.02
2019-03-20T03:14:20.969Z,98858.60
2019-03-20T03:16:49.268Z,98862.06
2019-03-20T03:19:17.496Z,98860.47
2019-03-20T03:21:45.706Z,98867.98
2019-03-20T03:24:13.922Z,98865.59
2019-03-20T03:26:42.180Z,98871.47
2019-03-20T03:29:10.512Z,98872.02
2019-03-20T03:31:38.746Z,98871.77
2019-03-20T03:34:06.977Z,98875.79
2019-03-20T03:36:35.161Z,98877.38
2019-03-20T03:39:04.398Z,98877.68
2019-03-20T03:41:32.576Z,98879.83
2019-03-20T03:44:00.854Z,98881.43
2019-03-20T03:46:29.077Z,98877.97
2019-03-20T03:48:57.288Z,98880.66
2019-03-20T03:51:25.557Z,98880.09
2019-03-20T03:53:53.767Z,98883.32
2019-03-20T03:56:22.047Z,98887.33
2019-03-20T03:58:50.274Z,98888.94
2019-03-20T04:01:18.486Z,98889.78
2019-03-20T04:03:46.666Z,98892.97
2019-03-20T04:06:14.888Z,98892.73
2019-03-20T04:08:43.126Z,98904.81
2019-03-20T04:11:11.332Z,98902.13
2019-03-20T04:13:39.570Z,98908.83
2019-03-20T04:16:07.838Z,98916.09
2019-03-20T04:18:36.079Z,98910.16
2019-03-20T04:21:04.299Z,98892.50
2019-03-20T04:23:32.509Z,98916.88
2019-03-20T04:26:00.713Z,98917.15
2019-03-20T04:28:28.985Z,98919.28
2019-03-20T04:30:57.260Z,98920.63
2019-03-20T04:33:25.458Z,98919.32
2019-03-20T04:35:53.840Z,98923.34
2019-03-20T04:38:22.065Z,98924.69
2019-03-20T04:40:50.353Z,98920.38
2019-03-20T04:43:18.795Z,98924.14
2019-03-20T04:45:47.009Z,98919.87
2019-03-20T04:48:15.234Z,98924.14
2019-03-20T04:50:43.401Z,98921.99
2019-03-20T04:53:11.695Z,98935.42
2019-03-20T04:55:39.910Z,98934.06
2019-03-20T04:58:08.179Z,98933.28
2019-03-20T05:00:36.376Z,98933.55
2019-03-20T05:03:04.673Z,98931.12
2019-03-20T05:05:32.835Z,98936.50
2019-03-20T05:08:01.028Z,98937.02
2019-03-20T05:10:29.200Z,98931.66
2019-03-20T05:12:57.416Z,98935.16
2019-03-20T05:15:25.630Z,98935.42
2019-03-20T05:17:53.837Z,98938.11
2019-03-20T05:20:21.993Z,98940.81
2019-03-20T05:22:50.234Z,98945.62
2019-03-20T05:25:18.376Z,98943.49
2019-03-20T05:27:46.559Z,98954.21
2019-03-20T05:30:14.724Z,98953.42
2019-03-20T05:32:43.012Z,98952.09
2019-03-20T05:35:11.137Z,98958.80
2019-03-20T05:37:39.348Z,98961.48
2019-03-20T05:40:08.163Z,98969.53
2019-03-20T05:42:36.355Z,98945.10
2019-03-20T05:45:04.989Z,98971.94
2019-03-20T05:47:33.176Z,98972.48
2019-03-20T05:50:01.378Z,98976.52
2019-03-20T05:52:29.642Z,98974.62
2019-03-20T05:54:57.797Z,98980.27
2019-03-20T05:57:26.092Z,98986.69
2019-03-20T05:59:54.293Z,98987.77
2019-03-20T06:02:22.536Z,99001.45
2019-03-20T06:04:50.760Z,98998.77
2019-03-20T06:07:21.733Z,98999.55
2019-03-20T06:09:48.801Z,98997.69
2019-03-20T06:12:17.124Z,98999.30
2019-03-20T06:14:45.401Z,99008.41
2019-03-20T06:17:13.783Z,99008.69
2019-03-20T06:19:42.137Z,99014.84
2019-03-20T06:22:10.597Z,99015.16
2019-03-20T06:24:38.935Z,99019.17
2019-03-20T06:27:07.209Z,99013.25
2019-03-20T06:29:35.499Z,99018.62
2019-03-20T06:32:03.712Z,99017.29
2019-03-20T06:34:31.899Z,99014.86
2019-03-20T06:37:00.125Z,99025.60
2019-03-20T06:39:28.288Z,99033.36
2019-03-20T06:41:56.500Z,99034.44
2019-03-20T06:44:24.799Z,99043.84
2019-03-20T06:46:52.976Z,99046.53
2019-03-20T06:49:21.123Z,99042.23
2019-03-20T06:51:49.386Z,99022.91
2019-03-20T06:54:17.599Z,99046.80
2019-03-20T06:56:45.851Z,99053.22
2019-03-20T06:59:26.719Z,99046.25
2019-03-20T07:01:54.888Z,99055.09
2019-03-20T07:04:32.488Z,99057.25
2019-03-20T07:07:11.955Z,99055.09
2019-03-20T07:09:42.470Z,99051.08
2019-03-20T07:12:10.753Z,99059.66
2019-03-20T07:14:38.925Z,99065.84
2019-03-20T07:17:07.197Z,99059.66
2019-03-20T07:19:35.409Z,99063.16
2019-03-20T07:22:03.603Z,99060.47
2019-03-20T07:24:31.831Z,99067.16
2019-03-20T07:27:00.028Z,99063.69
2019-03-20T07:29:28.238Z,99068.75
2019-03-20T07:31:56.462Z,99068.22
2019-03-20T07:34:24.608Z,99074.14
2019-03-20T07:36:52.885Z,99073.31
2019-03-20T07:39:21.214Z,99077.06
2019-03-20T07:41:49.391Z,99076.00
2019-03-20T07:44:17.518Z,99082.98
2019-03-20T07:46:45.667Z,99084.05
2019-03-20T07:49:13.827Z,99084.84
2019-03-20T07:51:41.960Z,99082.69
2019-03-20T07:54:10.105Z,99087.52
2019-03-20T07:56:38.239Z,99086.44
2019-03-20T07:59:06.392Z,99084.82
2019-03-20T08:01:34.523Z,99075.98
2019-03-20T08:04:02.763Z,99083.22
2019-03-20T08:06:30.880Z,99082.39
2019-03-20T08:08:59.121Z,99080.52
2019-03-20T08:11:27.258Z,99083.46
2019-03-20T08:13:55.400Z,99078.36
2019-03-20T08:16:23.555Z,99088.81
2019-03-20T08:18:51.697Z,99082.92
2019-03-20T08:21:19.824Z,99086.13
2019-03-20T08:23:47.960Z,99092.33
2019-03-20T08:26:16.101Z,99094.22
2019-03-20T08:28:44.250Z,99094.22
2019-03-20T08:31:12.388Z,99095.55
2019-03-20T08:33:40.517Z,99093.67
2019-03-20T08:36:08.657Z,99097.94
2019-03-20T08:38:36.789Z,99104.13
2019-03-20T08:41:04.974Z,99107.07
2019-03-20T08:43:33.193Z,99106.27
2019-03-20T08:46:01.409Z,99103.03
2019-03-20T08:48:29.575Z,99101.69
2019-03-20T08:50:57.772Z,99105.69
2019-03-20T08:53:25.917Z,99103.84
2019-03-20T08:55:54.089Z,99104.62
2019-03-20T08:58:37.601Z,99109.44
2019-03-20T09:01:05.765Z,99106.50
2019-03-20T09:03:33.904Z,99106.75
2019-03-20T09:06:02.070Z,99109.42
2019-03-20T09:08:30.228Z,99104.58
2019-03-20T09:10:58.500Z,99106.72
2019-03-20T09:13:26.667Z,99104.30
2019-03-20T09:15:54.808Z,99110.73
2019-03-20T09:18:23.024Z,99112.88
2019-03-20T09:20:51.135Z,99104.53
2019-03-20T09:23:19.288Z,99106.95
2019-03-20T09:25:47.437Z,99110.95
2019-03-20T09:28:15.574Z,99110.43
2019-03-20T09:30:43.700Z,99102.92
2019-03-20T09:33:11.833Z,99108.03
2019-03-20T09:35:40.002Z,99108.52
2019-03-20T09:38:08.200Z,99109.87
2019-03-20T09:40:36.367Z,99106.89
2019-03-20T09:43:04.518Z,99117.37
2019-03-20T09:45:32.729Z,99114.97
2019-03-20T09:48:00.875Z,99109.83
2019-03-20T09:50:28.997Z,99108.72
2019-03-20T09:52:57.169Z,99108.48
2019-03-20T09:55:25.316Z,99112.48
2019-03-20T09:57:53.545Z,99112.20
2019-03-20T10:00:22.209Z,99111.39
2019-03-20T10:02:50.346Z,99113.55
2019-03-20T10:05:18.485Z,99115.17
2019-03-20T10:07:46.631Z,99116.77
2019-03-20T10:10:16.329Z,99122.13
2019-03-20T10:12:44.567Z,99114.59
2019-03-20T10:15:13.048Z,99111.35
2019-03-20T10:17:41.227Z,99118.10
2019-03-20T10:20:10.159Z,99117.54
2019-03-20T10:22:39.089Z,99122.12
2019-03-20T10:25:07.526Z,99117.27
2019-03-20T10:27:35.705Z,99114.05
2019-03-20T10:30:03.902Z,99118.09
2019-03-20T10:32:32.089Z,99119.16
2019-03-20T10:35:00.349Z,99118.32
2019-03-20T10:37:28.625Z,99123.73
2019-03-20T10:39:56.851Z,99127.75
2019-03-20T10:42:25.055Z,99125.58
2019-03-20T10:44:53.300Z,99119.41
2019-03-20T10:47:21.525Z,99122.33
2019-03-20T10:49:49.770Z,99129.62
2019-03-20T10:52:17.981Z,99133.93
2019-03-20T10:54:46.212Z,99133.63
2019-03-20T10:57:14.440Z,99127.44
2019-03-20T10:59:42.673Z,99132.81
2019-03-20T11:02:10.881Z,99130.91
2019-03-20T11:04:39.118Z,99137.37
2019-03-20T11:07:07.392Z,99137.65
2019-03-20T11:09:35.551Z,99139.50
2019-03-20T11:12:03.817Z,99136.53
2019-03-20T11:14:32.237Z,99130.92
2019-03-20T11:17:00.531Z,99124.19
2019-03-20T11:19:28.776Z,99135.20
2019-03-20T11:21:57.012Z,99134.40
2019-03-20T11:24:25.319Z,99129.80
2019-03-20T11:26:53.602Z,99123.33
2019-03-20T11:29:22.291Z,99129.55
2019-03-20T11:31:50.941Z,99117.16
2019-03-20T11:34:19.536Z,99119.85
2019-03-20T11:36:48.192Z,99115.81
2019-03-20T11:39:16.774Z,99117.16
2019-03-20T11:41:45.196Z,99122.27
2019-03-20T11:44:13.536Z,99113.66
2019-03-20T11:46:42.290Z,99109.34
2019-03-20T11:49:11.011Z,99109.30
2019-03-20T11:51:39.523Z,99106.10
2019-03-20T11:54:08.006Z,99105.53
2019-03-20T11:56:36.446Z,99107.72
2019-03-20T11:59:05.080Z,99083.30
2019-03-20T12:01:33.355Z,99094.77
2019-03-20T12:04:01.699Z,99098.02
2019-03-20T12:06:29.952Z,99087.27
2019-03-20T12:08:58.236Z,99087.80
2019-03-20T12:11:26.552Z,99086.14
2019-03-20T12:13:54.848Z,99085.08
2019-03-20T12:16:23.263Z,99082.11
2019-03-20T12:18:51.567Z,99080.51
2019-03-20T12:21:19.837Z,99084.27
2019-03-20T12:23:48.103Z,99073.78
2019-03-20T12:26:16.385Z,99071.91
2019-03-20T12:28:44.628Z,99072.66
2019-03-20T12:31:12.909Z,99071.31
2019-03-20T12:33:41.172Z,99073.75
2019-03-20T12:36:09.465Z,99076.13
2019-03-20T12:38:37.788Z,99065.37
2019-03-20T12:41:06.429Z,99062.67
2019-03-20T12:43:34.820Z,99053.79
2019-03-20T12:46:03.083Z,99051.88
2019-03-20T12:48:31.327Z,99048.09
2019-03-20T12:50:59.692Z,99053.26
2019-03-20T12:53:29.521Z,99028.84
2019-03-20T12:55:57.817Z,99050.53
2019-03-20T12:58:26.098Z,99055.89
2019-03-20T13:00:54.650Z,99045.41
2019-03-20T13:03:24.098Z,99040.23
2019-03-20T13:05:52.528Z,99042.65
2019-03-20T13:08:21.109Z,99044.28
2019-03-20T13:10:49.734Z,99047.25
2019-03-20T13:13:18.327Z,99044.06
2019-03-20T13:15:46.924Z,99045.66
2019-03-20T13:18:15.503Z,99034.32
2019-03-20T13:20:44.064Z,99038.39
2019-03-20T13:23:13.187Z,99030.85
2019-03-20T13:25:41.799Z,99027.38
2019-03-20T13:28:10.121Z,99027.34
2019-03-20T13:30:42.472Z,99028.41
2019-03-20T13:33:10.749Z,99025.72
2019-03-20T13:35:39.012Z,99028.94
2019-03-20T13:38:07.274Z,99035.39
2019-03-20T13:40:35.553Z,99026.18
2019-03-20T13:43:03.811Z,99030.75
2019-03-20T13:45:32.052Z,99027.45
2019-03-20T13:48:00.325Z,99029.05
2019-03-20T13:50:28.813Z,99025.02
2019-03-20T13:52:57.427Z,99017.68
2019-03-20T13:55:26.046Z,99014.45
2019-03-20T13:57:54.666Z,99016.66
2019-03-20T14:00:23.078Z,99015.88
2019-03-20T14:02:51.353Z,99007.80
2019-03-20T14:05:19.700Z,99020.45
2019-03-20T14:07:48.235Z,99014.77
2019-03-20T14:10:25.173Z,99016.66
2019-03-20T14:12:47.942Z,99012.30
2019-03-20T14:15:16.745Z,99012.93
2019-03-20T14:17:45.267Z,99010.98
2019-03-20T14:20:14.958Z,99008.29
2019-03-20T14:22:43.273Z,99006.12
2019-03-20T14:25:11.611Z,99004.50
2019-03-20T14:27:40.053Z,99003.16
2019-03-20T14:30:11.030Z,99005.34
2019-03-20T14:32:39.520Z,98994.58
2019-03-20T14:35:08.520Z,98991.81
2019-03-20T14:37:37.173Z,98994.50
2019-03-20T14:40:05.896Z,98958.14
2019-03-20T14:42:34.385Z,98987.56
2019-03-20T14:45:03.081Z,98994.01
2019-03-20T14:47:41.755Z,98990.50
2019-03-20T14:50:02.073Z,98991.31
2019-03-20T14:52:30.522Z,98990.83
2019-03-20T14:54:58.912Z,98991.03
2019-03-20T14:57:27.231Z,98989.69
2019-03-20T14:59:55.664Z,98979.48
2019-03-20T15:02:24.383Z,98987.28
2019-03-20T15:04:52.960Z,98981.08
2019-03-20T15:07:21.602Z,98977.58
2019-03-20T15:09:50.057Z,98977.28
2019-03-20T15:12:18.561Z,98972.47
2019-03-20T15:14:46.920Z,98970.84
2019-03-20T15:17:15.402Z,98975.94
2019-03-20T15:19:44.093Z,98973.24
2019-03-20T15:22:12.424Z,98976.22
2019-03-20T15:24:40.826Z,98974.11
2019-03-20T15:27:09.111Z,98976.51
2019-03-20T15:29:37.394Z,98973.86
2019-03-20T15:32:05.664Z,98970.06
2019-03-20T15:34:33.922Z,98975.41
2019-03-20T15:37:02.146Z,98969.25
2019-03-20T15:39:30.383Z,98972.51
2019-03-20T15:41:58.776Z,98975.73
2019-03-20T15:44:26.995Z,98975.73
2019-03-20T15:46:55.243Z,98977.36
2019-03-20T15:49:23.512Z,98978.95
2019-03-20T15:51:51.719Z,98984.88
2019-03-20T15:54:19.956Z,98978.63
2019-03-20T15:56:48.184Z,98985.16
2019-03-20T15:59:16.504Z,98989.97
2019-03-20T16:01:44.792Z,98990.02
2019-03-20T16:04:13.057Z,98996.49
2019-03-20T16:06:41.258Z,98993.27
2019-03-20T16:09:09.829Z,98994.37
2019-03-20T16:11:38.056Z,98992.98
2019-03-20T16:14:06.274Z,98992.17
2019-03-20T16:16:34.539Z,98991.39
2019-03-20T16:19:02.803Z,98991.39
2019-03-20T16:21:31.121Z,98997.56
2019-03-20T16:23:59.372Z,98998.91
2019-03-20T16:26:27.584Z,99003.51
2019-03-20T16:28:55.791Z,99007.58
2019-03-20T16:31:24.017Z,99009.99
2019-03-20T16:33:52.223Z,99012.16
2019-03-20T16:36:20.549Z,99006.27
2019-03-20T16:38:48.884Z,99005.17
2019-03-20T16:41:17.244Z,99006.52
2019-03-20T16:43:45.591Z,99011.16
2019-03-20T16:46:13.809Z,99008.44
2019-03-20T16:48:42.014Z,99011.69
2019-03-20T16:51:10.252Z,99016.30
2019-03-20T16:53:38.499Z,99010.41
2019-03-20T16:56:06.744Z,99012.26
2019-03-20T16:58:34.946Z,99013.32
2019-03-20T17:01:03.181Z,99013.89
2019-03-20T17:03:31.482Z,99018.48
2019-03-20T17:05:59.853Z,99019.05
2019-03-20T17:08:28.271Z,99020.40
2019-03-20T17:10:56.685Z,99025.78
2019-03-20T17:13:25.222Z,99025.78
2019-03-20T17:15:53.524Z,99030.38
2019-03-20T17:18:21.863Z,99026.34
2019-03-20T17:20:50.356Z,99023.66
2019-03-20T17:23:18.945Z,99024.72
2019-03-20T17:25:47.389Z,99027.16
2019-03-20T17:28:15.849Z,99040.36
2019-03-20T17:30:44.264Z,99038.73
2019-03-20T17:33:12.591Z,99040.36
2019-03-20T17:35:41.069Z,99034.98
2019-03-20T17:38:09.412Z,99041.98
2019-03-20T17:40:38.240Z,99041.73
2019-03-20T17:43:06.725Z,99040.39
2019-03-20T17:45:35.283Z,99034.23
2019-03-20T17:48:04.383Z,99042.58
2019-03-20T17:50:32.755Z,99048.25
2019-03-20T17:53:01.262Z,99058.20
2019-03-20T17:55:29.600Z,99051.72
2019-03-20T17:57:57.815Z,99047.71
2019-03-20T18:00:32.804Z,99043.42
2019-03-20T18:03:01.018Z,99043.14
2019-03-20T18:05:29.232Z,99045.05
2019-03-20T18:07:57.442Z,99048.58
2019-03-20T18:10:25.708Z,99053.15
2019-03-20T18:12:53.915Z,99052.31
2019-03-20T18:15:22.132Z,99046.67
2019-03-20T18:17:50.347Z,99048.58
2019-03-20T18:20:18.563Z,99051.27
2019-03-20T18:22:46.768Z,99062.03
2019-03-20T18:25:14.988Z,99060.97
2019-03-20T18:27:43.215Z,99060.97
2019-03-20T18:30:18.598Z,99069.32
2019-03-20T18:32:46.795Z,99046.55
2019-03-20T18:35:15.004Z,99066.14
2019-03-20T18:37:43.525Z,99069.42
2019-03-20T18:40:12.563Z,99061.11
2019-03-20T18:42:40.710Z,99066.51
2019-03-20T18:45:09.187Z,99071.65
2019-03-20T18:47:37.330Z,99070.07
2019-03-20T18:50:05.488Z,99063.87
2019-03-20T18:52:33.685Z,99076.30
2019-03-20T18:55:01.802Z,99068.78
2019-03-20T18:57:30.071Z,99073.56
2019-03-20T18:59:58.232Z,99084.28
2019-03-20T19:02:26.399Z,99075.94
2019-03-20T19:04:54.532Z,99079.67
2019-03-20T19:07:22.689Z,99082.64
2019-03-20T19:09:50.843Z,99087.19
2019-03-20T19:12:18.973Z,99084.78
2019-03-20T19:14:49.182Z,99086.37
2019-03-20T19:17:17.418Z,99089.34
2019-03-20T19:19:45.561Z,99086.38
2019-03-20T19:22:13.693Z,99090.69
2019-03-20T19:24:41.845Z,99094.73
2019-03-20T19:27:09.967Z,99095.23
2019-03-20T19:29:38.186Z,99098.77
2019-03-20T19:32:06.317Z,99105.48
2019-03-20T19:34:34.459Z,99116.49
2019-03-20T19:37:02.591Z,99120.00
2019-03-20T19:39:30.748Z,99116.24
2019-03-20T19:41:58.881Z,99109.47
2019-03-20T19:44:27.021Z,99118.38
2019-03-20T19:46:55.227Z,99114.59
2019-03-20T19:49:23.397Z,99117.30
2019-03-20T19:51:51.542Z,99118.94
2019-03-20T19:54:19.713Z,99121.06
2019-03-20T19:56:47.882Z,99120.53
2019-03-20T19:59:16.044Z,99124.56
2019-03-20T20:01:44.189Z,99122.94
2019-03-20T20:04:12.321Z,99125.63
2019-03-20T20:06:40.558Z,99120.81
2019-03-20T20:09:08.740Z,99131.56
2019-03-20T20:11:36.942Z,99131.02
2019-03-20T20:14:05.081Z,99132.66
2019-03-20T20:16:33.261Z,99127.80
2019-03-20T20:19:01.425Z,99128.06
2019-03-20T20:21:29.585Z,99133.16
2019-03-20T20:23:57.752Z,99132.09
2019-03-20T20:26:25.928Z,99136.92
2019-03-20T20:28:54.121Z,99136.66
2019-03-20T20:31:22.280Z,99141.23
2019-03-20T20:33:50.590Z,99147.95
2019-03-20T20:36:18.801Z,99146.61
2019-03-20T20:38:46.982Z,99152.27
2019-03-20T20:41:15.213Z,99139.37
2019-03-20T20:43:43.400Z,99144.47
2019-03-20T20:46:11.631Z,99148.23
2019-03-20T20:48:39.886Z,99151.73
2019-03-20T20:51:08.044Z,99154.95
2019-03-20T20:53:36.542Z,99154.44
2019-03-20T20:56:04.755Z,99152.28
2019-03-20T20:58:32.935Z,99154.44
2019-03-20T21:01:01.137Z,99149.34
2019-03-20T21:03:29.309Z,99143.45
2019-03-20T21:05:57.502Z,99144.83
2019-03-20T21:08:25.719Z,99140.55
2019-03-20T21:10:53.947Z,99143.53
2019-03-20T21:13:22.163Z,99145.68
2019-03-20T21:15:51.803Z,99142.19
2019-03-20T21:18:38.161Z,99145.97
2019-03-20T21:21:06.610Z,99144.64
2019-03-20T21:23:52.565Z,99108.96
2019-03-20T21:26:21.028Z,99151.91
2019-03-20T21:28:57.192Z,99150.56
2019-03-20T21:31:27.630Z,99147.63
2019-03-20T21:34:14.958Z,99148.17
2019-03-20T21:36:59.614Z,99155.69
2019-03-20T21:39:28.161Z,99150.05
2019-03-20T21:42:14.394Z,99159.73
2019-03-20T21:45:12.155Z,99164.02
2019-03-20T21:47:39.514Z,99159.20
2019-03-20T21:50:16.948Z,99154.36
2019-03-20T21:52:45.391Z,99153.30
2019-03-20T21:55:33.063Z,99154.92
2019-03-20T21:58:04.400Z,99153.83
2019-03-20T22:00:50.298Z,99150.60
2019-03-20T22:03:18.733Z,99149.26
2019-03-20T22:06:14.953Z,99149.27
2019-03-20T22:08:43.403Z,99146.05
2019-03-20T22:11:33.450Z,99147.95
2019-03-20T22:14:04.584Z,99145.80
2019-03-20T22:16:51.960Z,99147.38
2019-03-20T22:19:22.564Z,99146.59
2019-03-20T22:22:12.884Z,99152.20
2019-03-20T22:25:03.423Z,99151.40
2019-03-20T22:27:54.175Z,99158.91
2019-03-20T22:30:22.631Z,99149.27
2019-03-20T22:33:08.847Z,99153.03
2019-03-20T22:35:48.521Z,99161.34
2019-03-20T22:38:32.094Z,99168.89
2019-03-20T22:41:18.309Z,99165.38
2019-03-20T22:43:51.676Z,99166.18
2019-03-20T22:46:38.962Z,99167.77
2019-03-20T22:49:25.249Z,99171.52
2019-03-20T22:52:03.637Z,99170.47
2019-03-20T22:54:53.688Z,99168.56
2019-03-20T22:57:30.630Z,99175.84
2019-03-20T22:59:59.082Z,99173.14
2019-03-20T23:02:45.614Z,99170.20
2019-03-20T23:05:14.111Z,99165.34
2019-03-20T23:07:42.582Z,99157.81
2019-03-20T23:10:12.248Z,99163.48
2019-03-20T23:12:40.789Z,99159.97
2019-03-20T23:15:10.918Z,99161.59
2019-03-20T23:17:39.396Z,99165.65
2019-03-20T23:20:09.555Z,99167.83
2019-03-20T23:22:38.007Z,99164.84
2019-03-20T23:25:06.557Z,99165.66
2019-03-20T23:27:35.245Z,99158.40
2019-03-20T23:30:04.316Z,99162.70
2019-03-20T23:32:32.728Z,99165.39
2019-03-20T23:35:01.182Z,99164.31
2019-03-20T23:37:29.590Z,99165.14
2019-03-20T23:39:58.080Z,99164.32
2019-03-20T23:42:26.780Z,99167.80
2019-03-20T23:44:55.302Z,99168.63
2019-03-20T23:47:32.660Z,99163.23
2019-03-20T23:50:01.136Z,99161.09
2019-03-20T23:52:29.664Z,99162.18
2019-03-20T23:54:58.068Z,99156.54
2019-03-20T23:57:26.455Z,99153.58
2019-03-20T23:59:55.557Z,99152.24
